sensor_id;sensor_type;location;lat;lon;timestamp;pressure;altitude;pressure_sealevel;temperature;humidity
15670;BME280;18524;45.190;5.732;2023-01-09T00:02:49;98042.59;;;10.87;100.00
15670;BME280;18524;45.190;5.732;2023-01-09T00:07:40;98057.72;;;10.93;100.00
15670;BME280;18524;45.190;5.732;2023-01-09T00:12:31;98052.16;;;10.96;100.00
15670;BME280;18524;45.190;5.732;2023-01-09T00:17:21;98068.78;;;11.05;100.00
15670;BME280;18524;45.190;5.732;2023-01-09T00:22:12;98107.53;;;11.11;100.00
15670;BME280;18524;45.190;5.732;2023-01-09T00:27:02;98131.81;;;11.31;100.00
15670;BME280;18524;45.190;5.732;2023-01-09T00:31:53;98127.06;;;11.34;99.63
15670;BME280;18524;45.190;5.732;2023-01-09T00:36:43;98127.69;;;11.28;99.74
15670;BME280;18524;45.190;5.732;2023-01-09T00:41:44;98141.16;;;11.33;97.79
15670;BME280;18524;45.190;5.732;2023-01-09T00:46:39;98128.34;;;11.30;97.28
15670;BME280;18524;45.190;5.732;2023-01-09T00:51:30;98134.53;;;11.21;97.74
15670;BME280;18524;45.190;5.732;2023-01-09T00:56:21;98139.25;;;11.17;97.75
15670;BME280;18524;45.190;5.732;2023-01-09T01:01:12;98127.69;;;11.10;98.73
15670;BME280;18524;45.190;5.732;2023-01-09T01:06:03;98150.72;;;10.99;100.00
15670;BME280;18524;45.190;5.732;2023-01-09T01:11:12;98150.19;;;10.95;99.69
15670;BME280;18524;45.190;5.732;2023-01-09T01:16:04;98131.94;;;10.85;100.00
15670;BME280;18524;45.190;5.732;2023-01-09T01:20:54;98144.13;;;10.77;100.00
15670;BME280;18524;45.190;5.732;2023-01-09T01:25:44;98143.13;;;10.78;100.00
15670;BME280;18524;45.190;5.732;2023-01-09T01:30:40;98157.63;;;10.82;100.00
15670;BME280;18524;45.190;5.732;2023-01-09T01:35:30;98169.09;;;10.81;100.00
15670;BME280;18524;45.190;5.732;2023-01-09T01:40:21;98230.53;;;10.78;100.00
15670;BME280;18524;45.190;5.732;2023-01-09T01:45:15;98270.28;;;10.74;100.00
15670;BME280;18524;45.190;5.732;2023-01-09T01:55:11;98267.81;;;10.45;100.00
15670;BME280;18524;45.190;5.732;2023-01-09T02:00:03;98276.09;;;10.40;100.00
15670;BME280;18524;45.190;5.732;2023-01-09T02:04:55;98275.25;;;10.40;100.00
15670;BME280;18524;45.190;5.732;2023-01-09T02:09:47;98299.22;;;10.54;97.34
15670;BME280;18524;45.190;5.732;2023-01-09T02:14:37;98319.66;;;10.51;100.00
15670;BME280;18524;45.190;5.732;2023-01-09T02:25:35;98346.56;;;10.53;100.00
15670;BME280;18524;45.190;5.732;2023-01-09T02:30:43;98360.38;;;10.45;100.00
15670;BME280;18524;45.190;5.732;2023-01-09T02:40:48;98368.94;;;10.47;95.87
15670;BME280;18524;45.190;5.732;2023-01-09T02:45:39;98376.28;;;10.71;88.13
15670;BME280;18524;45.190;5.732;2023-01-09T02:50:38;98381.28;;;10.64;99.47
15670;BME280;18524;45.190;5.732;2023-01-09T03:05:46;98386.44;;;10.56;99.70
15670;BME280;18524;45.190;5.732;2023-01-09T03:15:47;98396.94;;;10.47;98.21
15670;BME280;18524;45.190;5.732;2023-01-09T03:20:40;98394.03;;;10.40;100.00
15670;BME280;18524;45.190;5.732;2023-01-09T03:25:32;98391.84;;;10.36;100.00
15670;BME280;18524;45.190;5.732;2023-01-09T03:30:23;98389.06;;;10.37;100.00
15670;BME280;18524;45.190;5.732;2023-01-09T03:35:14;98390.47;;;10.31;100.00
15670;BME280;18524;45.190;5.732;2023-01-09T03:40:05;98390.75;;;10.28;100.00
15670;BME280;18524;45.190;5.732;2023-01-09T03:44:55;98399.16;;;10.32;100.00
15670;BME280;18524;45.190;5.732;2023-01-09T03:49:46;98399.84;;;10.34;100.00
15670;BME280;18524;45.190;5.732;2023-01-09T03:54:36;98401.09;;;10.30;100.00
15670;BME280;18524;45.190;5.732;2023-01-09T03:59:28;98397.06;;;10.36;100.00
15670;BME280;18524;45.190;5.732;2023-01-09T04:04:18;98396.81;;;10.29;100.00
15670;BME280;18524;45.190;5.732;2023-01-09T04:09:09;98399.41;;;10.39;100.00
15670;BME280;18524;45.190;5.732;2023-01-09T04:13:59;98407.28;;;10.39;100.00
15670;BME280;18524;45.190;5.732;2023-01-09T04:18:49;98407.84;;;10.32;100.00
15670;BME280;18524;45.190;5.732;2023-01-09T04:23:40;98406.59;;;10.27;100.00
15670;BME280;18524;45.190;5.732;2023-01-09T04:28:30;98400.53;;;10.26;100.00
15670;BME280;18524;45.190;5.732;2023-01-09T04:33:21;98405.09;;;10.15;100.00
15670;BME280;18524;45.190;5.732;2023-01-09T04:38:11;98428.38;;;10.08;98.99
15670;BME280;18524;45.190;5.732;2023-01-09T04:43:02;98435.56;;;10.06;98.89
15670;BME280;18524;45.190;5.732;2023-01-09T04:47:52;98444.91;;;9.99;100.00
15670;BME280;18524;45.190;5.732;2023-01-09T04:52:42;98453.72;;;9.98;100.00
15670;BME280;18524;45.190;5.732;2023-01-09T04:57:33;98458.28;;;9.96;100.00
15670;BME280;18524;45.190;5.732;2023-01-09T05:02:24;98461.59;;;9.98;100.00
15670;BME280;18524;45.190;5.732;2023-01-09T05:07:15;98465.72;;;10.00;100.00
15670;BME280;18524;45.190;5.732;2023-01-09T05:12:05;98469.44;;;9.98;100.00
15670;BME280;18524;45.190;5.732;2023-01-09T05:16:56;98466.97;;;9.96;100.00
15670;BME280;18524;45.190;5.732;2023-01-09T05:21:46;98488.06;;;9.95;100.00
15670;BME280;18524;45.190;5.732;2023-01-09T05:26:36;98495.38;;;10.01;95.71
15670;BME280;18524;45.190;5.732;2023-01-09T05:31:27;98495.53;;;10.09;83.46
15670;BME280;18524;45.190;5.732;2023-01-09T05:36:18;98511.97;;;10.30;80.15
15670;BME280;18524;45.190;5.732;2023-01-09T05:41:08;98516.13;;;10.33;82.01
15670;BME280;18524;45.190;5.732;2023-01-09T05:45:59;98540.34;;;10.16;85.80
15670;BME280;18524;45.190;5.732;2023-01-09T05:50:49;98542.84;;;10.08;89.78
15670;BME280;18524;45.190;5.732;2023-01-09T05:55:39;98560.63;;;10.14;93.46
15670;BME280;18524;45.190;5.732;2023-01-09T06:00:30;98579.22;;;10.11;91.95
15670;BME280;18524;45.190;5.732;2023-01-09T06:05:20;98598.81;;;10.07;94.36
15670;BME280;18524;45.190;5.732;2023-01-09T06:10:12;98588.75;;;9.71;96.31
15670;BME280;18524;45.190;5.732;2023-01-09T06:15:03;98613.34;;;9.59;97.68
15670;BME280;18524;45.190;5.732;2023-01-09T06:19:54;98614.84;;;9.52;100.00
15670;BME280;18524;45.190;5.732;2023-01-09T06:24:45;98611.91;;;9.46;100.00
15670;BME280;18524;45.190;5.732;2023-01-09T06:29:35;98611.72;;;9.37;100.00
15670;BME280;18524;45.190;5.732;2023-01-09T06:34:25;98615.91;;;9.50;100.00
15670;BME280;18524;45.190;5.732;2023-01-09T06:39:16;98616.44;;;9.44;100.00
15670;BME280;18524;45.190;5.732;2023-01-09T06:44:06;98617.78;;;9.38;100.00
15670;BME280;18524;45.190;5.732;2023-01-09T06:48:57;98634.38;;;9.48;100.00
15670;BME280;18524;45.190;5.732;2023-01-09T06:53:47;98649.25;;;9.27;100.00
15670;BME280;18524;45.190;5.732;2023-01-09T06:58:37;98657.34;;;9.24;100.00
15670;BME280;18524;45.190;5.732;2023-01-09T07:03:28;98660.59;;;9.16;100.00
15670;BME280;18524;45.190;5.732;2023-01-09T07:08:18;98669.09;;;9.08;100.00
15670;BME280;18524;45.190;5.732;2023-01-09T07:13:09;98675.47;;;9.16;100.00
15670;BME280;18524;45.190;5.732;2023-01-09T07:18:00;98680.63;;;9.06;100.00
15670;BME280;18524;45.190;5.732;2023-01-09T07:22:50;98679.88;;;9.15;100.00
15670;BME280;18524;45.190;5.732;2023-01-09T07:27:41;98705.38;;;9.02;100.00
15670;BME280;18524;45.190;5.732;2023-01-09T07:32:32;98707.63;;;9.06;100.00
15670;BME280;18524;45.190;5.732;2023-01-09T07:37:22;98715.78;;;9.13;100.00
15670;BME280;18524;45.190;5.732;2023-01-09T07:42:12;98727.72;;;9.06;100.00
15670;BME280;18524;45.190;5.732;2023-01-09T07:47:03;98730.66;;;9.13;100.00
15670;BME280;18524;45.190;5.732;2023-01-09T07:51:54;98731.56;;;8.80;99.80
15670;BME280;18524;45.190;5.732;2023-01-09T07:56:44;98726.69;;;8.86;98.96
15670;BME280;18524;45.190;5.732;2023-01-09T08:01:35;98741.91;;;8.92;97.62
15670;BME280;18524;45.190;5.732;2023-01-09T08:06:26;98756.31;;;9.19;100.00
15670;BME280;18524;45.190;5.732;2023-01-09T08:11:16;98750.00;;;9.21;100.00
15670;BME280;18524;45.190;5.732;2023-01-09T08:16:07;98766.84;;;9.39;100.00
15670;BME280;18524;45.190;5.732;2023-01-09T08:20:57;98776.94;;;9.65;98.45
15670;BME280;18524;45.190;5.732;2023-01-09T08:25:48;98759.88;;;9.91;97.10
15670;BME280;18524;45.190;5.732;2023-01-09T08:30:38;98753.56;;;9.94;93.85
15670;BME280;18524;45.190;5.732;2023-01-09T08:35:29;98743.78;;;9.96;89.33
15670;BME280;18524;45.190;5.732;2023-01-09T08:40:19;98727.72;;;9.80;88.46
15670;BME280;18524;45.190;5.732;2023-01-09T08:45:10;98732.75;;;9.92;89.83
15670;BME280;18524;45.190;5.732;2023-01-09T08:50:20;98730.56;;;9.97;90.22
15670;BME280;18524;45.190;5.732;2023-01-09T08:55:10;98726.84;;;10.00;88.75
15670;BME280;18524;45.190;5.732;2023-01-09T09:00:01;98721.13;;;10.06;90.46
15670;BME280;18524;45.190;5.732;2023-01-09T09:04:51;98724.31;;;9.89;94.04
15670;BME280;18524;45.190;5.732;2023-01-09T09:09:42;98733.72;;;9.70;97.36
15670;BME280;18524;45.190;5.732;2023-01-09T09:14:33;98720.22;;;9.54;98.42
15670;BME280;18524;45.190;5.732;2023-01-09T09:19:41;98726.56;;;9.31;96.63
15670;BME280;18524;45.190;5.732;2023-01-09T09:24:32;98726.69;;;9.50;97.85
15670;BME280;18524;45.190;5.732;2023-01-09T09:29:22;98739.13;;;9.58;99.43
15670;BME280;18524;45.190;5.732;2023-01-09T09:34:12;98759.44;;;9.65;96.58
15670;BME280;18524;45.190;5.732;2023-01-09T09:39:03;98773.34;;;9.66;96.76
15670;BME280;18524;45.190;5.732;2023-01-09T09:49:35;98797.47;;;9.81;99.68
15670;BME280;18524;45.190;5.732;2023-01-09T09:54:38;98815.84;;;9.90;99.34
15670;BME280;18524;45.190;5.732;2023-01-09T09:59:32;98815.66;;;10.03;99.98
15670;BME280;18524;45.190;5.732;2023-01-09T10:04:25;98815.13;;;10.20;98.57
15670;BME280;18524;45.190;5.732;2023-01-09T10:09:39;98827.56;;;10.07;95.97
15670;BME280;18524;45.190;5.732;2023-01-09T10:14:32;98816.88;;;9.99;96.87
15670;BME280;18524;45.190;5.732;2023-01-09T10:40:18;98840.22;;;10.44;99.06
15670;BME280;18524;45.190;5.732;2023-01-09T10:45:27;98833.06;;;10.46;96.80
15670;BME280;18524;45.190;5.732;2023-01-09T10:50:25;98819.97;;;10.25;94.95
15670;BME280;18524;45.190;5.732;2023-01-09T10:55:29;98808.97;;;10.31;98.46
15670;BME280;18524;45.190;5.732;2023-01-09T11:00:23;98801.88;;;10.43;91.00
15670;BME280;18524;45.190;5.732;2023-01-09T11:05:18;98826.50;;;10.61;96.08
15670;BME280;18524;45.190;5.732;2023-01-09T11:10:11;98829.81;;;10.63;95.27
15670;BME280;18524;45.190;5.732;2023-01-09T11:20:16;98823.00;;;10.81;90.38
15670;BME280;18524;45.190;5.732;2023-01-09T11:25:11;98822.06;;;10.92;92.94
15670;BME280;18524;45.190;5.732;2023-01-09T11:30:04;98824.56;;;11.03;90.48
15670;BME280;18524;45.190;5.732;2023-01-09T11:34:56;98811.88;;;10.99;90.22
15670;BME280;18524;45.190;5.732;2023-01-09T11:39:46;98817.94;;;10.99;91.56
15670;BME280;18524;45.190;5.732;2023-01-09T11:44:37;98820.56;;;10.99;91.43
15670;BME280;18524;45.190;5.732;2023-01-09T11:49:29;98800.50;;;10.88;82.28
15670;BME280;18524;45.190;5.732;2023-01-09T11:54:28;98799.66;;;10.78;87.31
15670;BME280;18524;45.190;5.732;2023-01-09T11:59:23;98802.09;;;10.70;91.82
15670;BME280;18524;45.190;5.732;2023-01-09T12:04:27;98791.19;;;10.75;90.07
15670;BME280;18524;45.190;5.732;2023-01-09T12:09:32;98795.94;;;10.81;93.04
15670;BME280;18524;45.190;5.732;2023-01-09T12:35:01;98782.19;;;11.08;83.45
15670;BME280;18524;45.190;5.732;2023-01-09T12:55:13;98757.47;;;11.10;79.96
15670;BME280;18524;45.190;5.732;2023-01-09T13:00:17;98752.75;;;11.14;81.32
15670;BME280;18524;45.190;5.732;2023-01-09T13:05:25;98752.06;;;11.02;76.93
15670;BME280;18524;45.190;5.732;2023-01-09T13:10:41;98741.81;;;10.80;77.51
15670;BME280;18524;45.190;5.732;2023-01-09T13:15:46;98731.75;;;10.94;80.63
15670;BME280;18524;45.190;5.732;2023-01-09T13:20:49;98723.47;;;10.89;77.76
15670;BME280;18524;45.190;5.732;2023-01-09T13:25:46;98715.06;;;10.95;72.70
15670;BME280;18524;45.190;5.732;2023-01-09T13:30:55;98705.25;;;10.88;71.87
15670;BME280;18524;45.190;5.732;2023-01-09T13:35:56;98706.84;;;10.60;76.43
15670;BME280;18524;45.190;5.732;2023-01-09T13:41:09;98698.97;;;10.60;76.08
15670;BME280;18524;45.190;5.732;2023-01-09T13:46:19;98690.34;;;10.88;78.28
15670;BME280;18524;45.190;5.732;2023-01-09T13:56:31;98663.97;;;11.00;78.41
15670;BME280;18524;45.190;5.732;2023-01-09T14:06:17;98660.25;;;10.83;80.73
15670;BME280;18524;45.190;5.732;2023-01-09T14:11:08;98682.06;;;10.83;85.21
15670;BME280;18524;45.190;5.732;2023-01-09T14:16:20;98700.22;;;10.65;84.61
15670;BME280;18524;45.190;5.732;2023-01-09T14:21:12;98696.09;;;10.63;88.00
15670;BME280;18524;45.190;5.732;2023-01-09T14:26:03;98698.97;;;10.60;89.88
15670;BME280;18524;45.190;5.732;2023-01-09T14:36:09;98833.38;;;10.31;90.57
15670;BME280;18524;45.190;5.732;2023-01-09T14:41:18;98814.03;;;10.23;89.40
15670;BME280;18524;45.190;5.732;2023-01-09T14:46:13;98827.34;;;9.99;96.22
15670;BME280;18524;45.190;5.732;2023-01-09T14:51:04;98832.41;;;9.91;93.28
15670;BME280;18524;45.190;5.732;2023-01-09T14:55:59;98816.44;;;9.62;96.79
15670;BME280;18524;45.190;5.732;2023-01-09T15:01:02;98832.53;;;9.57;96.20
15670;BME280;18524;45.190;5.732;2023-01-09T15:05:53;98838.47;;;9.59;96.76
15670;BME280;18524;45.190;5.732;2023-01-09T15:10:46;98837.50;;;9.71;88.44
15670;BME280;18524;45.190;5.732;2023-01-09T15:15:43;98853.81;;;9.64;90.51
15670;BME280;18524;45.190;5.732;2023-01-09T15:20:34;98857.50;;;9.73;92.49
15670;BME280;18524;45.190;5.732;2023-01-09T15:25:31;98858.09;;;9.65;81.23
15670;BME280;18524;45.190;5.732;2023-01-09T15:35:13;98896.78;;;9.73;77.97
15670;BME280;18524;45.190;5.732;2023-01-09T15:40:05;98906.06;;;9.65;78.44
15670;BME280;18524;45.190;5.732;2023-01-09T15:44:57;98897.59;;;9.73;74.52
15670;BME280;18524;45.190;5.732;2023-01-09T15:49:47;98908.78;;;9.75;82.62
15670;BME280;18524;45.190;5.732;2023-01-09T15:54:38;98917.94;;;9.81;78.44
15670;BME280;18524;45.190;5.732;2023-01-09T15:59:29;98918.38;;;9.86;77.69
15670;BME280;18524;45.190;5.732;2023-01-09T16:04:19;98908.88;;;9.85;70.12
15670;BME280;18524;45.190;5.732;2023-01-09T16:09:24;98927.44;;;9.82;68.64
15670;BME280;18524;45.190;5.732;2023-01-09T16:14:19;98922.66;;;9.87;68.18
15670;BME280;18524;45.190;5.732;2023-01-09T16:24:56;98976.06;;;9.52;77.63
15670;BME280;18524;45.190;5.732;2023-01-09T16:29:48;98969.31;;;9.38;83.10
15670;BME280;18524;45.190;5.732;2023-01-09T16:34:40;98971.78;;;9.29;88.29
15670;BME280;18524;45.190;5.732;2023-01-09T16:39:33;98981.06;;;9.22;83.91
15670;BME280;18524;45.190;5.732;2023-01-09T16:44:23;99001.53;;;9.17;84.44
15670;BME280;18524;45.190;5.732;2023-01-09T16:49:24;99008.19;;;9.21;82.96
15670;BME280;18524;45.190;5.732;2023-01-09T16:54:16;99001.53;;;9.17;80.72
15670;BME280;18524;45.190;5.732;2023-01-09T16:59:16;99001.41;;;9.18;81.64
15670;BME280;18524;45.190;5.732;2023-01-09T17:04:11;99022.81;;;9.23;77.61
15670;BME280;18524;45.190;5.732;2023-01-09T17:09:01;99032.09;;;9.27;78.48
15670;BME280;18524;45.190;5.732;2023-01-09T17:13:52;99061.81;;;9.26;82.63
15670;BME280;18524;45.190;5.732;2023-01-09T17:18:42;99075.25;;;9.22;78.89
15670;BME280;18524;45.190;5.732;2023-01-09T17:23:33;99064.31;;;9.17;79.32
15670;BME280;18524;45.190;5.732;2023-01-09T17:28:23;99077.28;;;9.18;77.86
15670;BME280;18524;45.190;5.732;2023-01-09T17:33:22;99095.72;;;9.28;72.66
15670;BME280;18524;45.190;5.732;2023-01-09T17:38:14;99103.50;;;9.29;77.15
15670;BME280;18524;45.190;5.732;2023-01-09T17:43:04;99134.31;;;9.37;76.66
15670;BME280;18524;45.190;5.732;2023-01-09T17:47:55;99137.56;;;9.17;80.51
15670;BME280;18524;45.190;5.732;2023-01-09T17:52:46;99154.47;;;8.89;83.35
15670;BME280;18524;45.190;5.732;2023-01-09T17:57:37;99153.69;;;8.75;83.74
15670;BME280;18524;45.190;5.732;2023-01-09T18:02:27;99171.25;;;8.50;86.91
15670;BME280;18524;45.190;5.732;2023-01-09T18:07:17;99179.56;;;8.67;90.90
15670;BME280;18524;45.190;5.732;2023-01-09T18:12:08;99169.88;;;8.81;85.17
15670;BME280;18524;45.190;5.732;2023-01-09T18:16:59;99185.31;;;8.96;81.91
15670;BME280;18524;45.190;5.732;2023-01-09T18:21:50;99213.03;;;8.99;78.44
15670;BME280;18524;45.190;5.732;2023-01-09T18:26:40;99208.31;;;9.15;75.89
15670;BME280;18524;45.190;5.732;2023-01-09T18:31:30;99232.59;;;9.17;74.47
15670;BME280;18524;45.190;5.732;2023-01-09T18:36:24;99221.91;;;9.20;78.92
15670;BME280;18524;45.190;5.732;2023-01-09T18:41:18;99235.59;;;9.24;76.34
15670;BME280;18524;45.190;5.732;2023-01-09T18:46:09;99263.50;;;9.12;76.20
15670;BME280;18524;45.190;5.732;2023-01-09T18:51:05;99263.06;;;8.94;86.95
15670;BME280;18524;45.190;5.732;2023-01-09T18:55:56;99292.97;;;8.90;82.93
15670;BME280;18524;45.190;5.732;2023-01-09T19:00:46;99307.03;;;8.76;85.91
15670;BME280;18524;45.190;5.732;2023-01-09T19:05:39;99324.31;;;8.41;89.29
15670;BME280;18524;45.190;5.732;2023-01-09T19:10:29;99304.03;;;8.19;93.69
15670;BME280;18524;45.190;5.732;2023-01-09T19:15:20;99308.09;;;7.98;94.54
15670;BME280;18524;45.190;5.732;2023-01-09T19:20:10;99306.94;;;7.89;99.10
15670;BME280;18524;45.190;5.732;2023-01-09T19:25:01;99296.91;;;7.96;100.00
15670;BME280;18524;45.190;5.732;2023-01-09T19:29:51;99293.78;;;8.03;98.29
15670;BME280;18524;45.190;5.732;2023-01-09T19:34:41;99297.66;;;7.98;99.76
15670;BME280;18524;45.190;5.732;2023-01-09T19:39:32;99282.28;;;8.06;100.00
15670;BME280;18524;45.190;5.732;2023-01-09T19:44:23;99284.91;;;8.06;99.79
15670;BME280;18524;45.190;5.732;2023-01-09T19:49:13;99291.47;;;8.11;99.27
15670;BME280;18524;45.190;5.732;2023-01-09T19:54:03;99297.53;;;8.12;95.42
15670;BME280;18524;45.190;5.732;2023-01-09T19:58:58;99307.06;;;8.26;93.90
15670;BME280;18524;45.190;5.732;2023-01-09T20:03:51;99327.72;;;8.16;97.84
15670;BME280;18524;45.190;5.732;2023-01-09T20:08:46;99322.50;;;8.16;100.00
15670;BME280;18524;45.190;5.732;2023-01-09T20:13:36;99334.72;;;8.15;100.00
15670;BME280;18524;45.190;5.732;2023-01-09T20:18:28;99352.31;;;8.26;100.00
15670;BME280;18524;45.190;5.732;2023-01-09T20:23:19;99378.81;;;8.07;98.63
15670;BME280;18524;45.190;5.732;2023-01-09T20:28:12;99387.03;;;7.89;98.66
15670;BME280;18524;45.190;5.732;2023-01-09T20:33:02;99370.88;;;7.69;100.00
15670;BME280;18524;45.190;5.732;2023-01-09T20:37:53;99371.63;;;7.71;98.17
15670;BME280;18524;45.190;5.732;2023-01-09T20:42:43;99381.94;;;7.60;100.00
15670;BME280;18524;45.190;5.732;2023-01-09T20:47:33;99375.97;;;7.58;100.00
15670;BME280;18524;45.190;5.732;2023-01-09T20:52:24;99372.03;;;7.65;100.00
15670;BME280;18524;45.190;5.732;2023-01-09T20:57:14;99394.31;;;7.30;100.00
15670;BME280;18524;45.190;5.732;2023-01-09T21:02:05;99389.59;;;7.22;100.00
15670;BME280;18524;45.190;5.732;2023-01-09T21:06:55;99415.38;;;7.27;100.00
15670;BME280;18524;45.190;5.732;2023-01-09T21:11:45;99415.19;;;7.44;100.00
15670;BME280;18524;45.190;5.732;2023-01-09T21:16:36;99396.34;;;7.39;100.00
15670;BME280;18524;45.190;5.732;2023-01-09T21:21:27;99407.34;;;7.30;100.00
15670;BME280;18524;45.190;5.732;2023-01-09T21:26:19;99397.16;;;7.39;100.00
15670;BME280;18524;45.190;5.732;2023-01-09T21:31:12;99393.81;;;7.37;100.00
15670;BME280;18524;45.190;5.732;2023-01-09T21:36:03;99389.25;;;7.41;100.00
15670;BME280;18524;45.190;5.732;2023-01-09T21:40:54;99386.63;;;7.41;100.00
15670;BME280;18524;45.190;5.732;2023-01-09T21:45:44;99392.84;;;7.26;100.00
15670;BME280;18524;45.190;5.732;2023-01-09T21:51:01;99393.38;;;7.45;100.00
15670;BME280;18524;45.190;5.732;2023-01-09T21:55:52;99387.31;;;7.30;100.00
15670;BME280;18524;45.190;5.732;2023-01-09T22:00:42;99411.16;;;7.38;100.00
15670;BME280;18524;45.190;5.732;2023-01-09T22:05:35;99381.50;;;7.53;100.00
15670;BME280;18524;45.190;5.732;2023-01-09T22:10:26;99396.50;;;7.50;100.00
15670;BME280;18524;45.190;5.732;2023-01-09T22:15:16;99409.81;;;7.60;98.37
15670;BME280;18524;45.190;5.732;2023-01-09T22:20:08;99410.03;;;7.42;100.00
15670;BME280;18524;45.190;5.732;2023-01-09T22:24:59;99434.34;;;7.57;100.00
15670;BME280;18524;45.190;5.732;2023-01-09T22:29:50;99436.34;;;7.66;100.00
15670;BME280;18524;45.190;5.732;2023-01-09T22:34:40;99494.31;;;7.71;99.87
15670;BME280;18524;45.190;5.732;2023-01-09T22:39:31;99532.94;;;7.66;100.00
15670;BME280;18524;45.190;5.732;2023-01-09T22:44:21;99540.13;;;7.48;100.00
15670;BME280;18524;45.190;5.732;2023-01-09T22:49:12;99538.72;;;7.29;100.00
15670;BME280;18524;45.190;5.732;2023-01-09T22:54:03;99553.28;;;7.47;100.00
15670;BME280;18524;45.190;5.732;2023-01-09T22:58:54;99548.41;;;7.41;100.00
15670;BME280;18524;45.190;5.732;2023-01-09T23:03:47;99543.00;;;7.58;100.00
15670;BME280;18524;45.190;5.732;2023-01-09T23:08:38;99550.75;;;7.60;100.00
15670;BME280;18524;45.190;5.732;2023-01-09T23:13:28;99568.44;;;7.69;99.40
15670;BME280;18524;45.190;5.732;2023-01-09T23:18:19;99583.91;;;7.72;96.80
15670;BME280;18524;45.190;5.732;2023-01-09T23:23:10;99581.84;;;7.77;100.00
15670;BME280;18524;45.190;5.732;2023-01-09T23:28:00;99581.22;;;7.73;100.00
15670;BME280;18524;45.190;5.732;2023-01-09T23:32:51;99570.31;;;7.81;100.00
15670;BME280;18524;45.190;5.732;2023-01-09T23:37:42;99579.63;;;7.85;99.89
15670;BME280;18524;45.190;5.732;2023-01-09T23:42:32;99596.97;;;7.86;99.58
15670;BME280;18524;45.190;5.732;2023-01-09T23:47:41;99579.88;;;7.95;99.49
15670;BME280;18524;45.190;5.732;2023-01-09T23:52:32;99596.50;;;7.94;96.54
15670;BME280;18524;45.190;5.732;2023-01-09T23:57:22;99640.72;;;7.82;97.13
